createdAt,value
2022-11-20T00:00:45.236Z,98668.28
2022-11-20T00:03:13.002Z,98662.31
2022-11-20T00:05:40.575Z,98663.13
2022-11-20T00:08:08.240Z,98662.06
2022-11-20T00:10:39.577Z,98659.47
2022-11-20T00:13:07.794Z,98663.19
2022-11-20T00:15:35.597Z,98661.47
2022-11-20T00:18:03.298Z,98661.53
2022-11-20T00:20:31.222Z,98662.38
2022-11-20T00:22:59.280Z,98662.22
2022-11-20T00:25:26.931Z,98661.41
2022-11-20T00:27:55.989Z,98653.50
2022-11-20T00:30:23.755Z,98656.13
2022-11-20T00:32:51.627Z,98655.28
2022-11-20T00:35:20.131Z,98650.25
2022-11-20T00:37:48.018Z,98641.56
2022-11-20T00:40:15.863Z,98639.78
2022-11-20T00:42:43.512Z,98639.06
2022-11-20T00:45:12.756Z,98636.38
2022-11-20T00:47:40.528Z,98639.84
2022-11-20T00:50:08.752Z,98644.97
2022-11-20T00:52:36.341Z,98644.97
2022-11-20T00:55:04.162Z,98644.94
2022-11-20T00:57:31.911Z,98644.88
2022-11-20T00:59:59.572Z,98652.56
2022-11-20T01:02:28.570Z,98649.97
2022-11-20T01:04:56.153Z,98658.66
2022-11-20T01:07:23.977Z,98644.09
2022-11-20T01:09:51.673Z,98643.81
2022-11-20T01:12:19.251Z,98641.41
2022-11-20T01:14:47.350Z,98635.41
2022-11-20T01:17:14.911Z,98636.44
2022-11-20T01:19:43.956Z,98640.56
2022-11-20T01:22:11.823Z,98635.31
2022-11-20T01:24:39.426Z,98636.25
2022-11-20T01:27:07.222Z,98638.00
2022-11-20T01:29:35.005Z,98638.81
2022-11-20T01:32:02.668Z,98644.84
2022-11-20T01:34:30.470Z,98638.00
2022-11-20T01:36:59.477Z,98642.88
2022-11-20T01:39:28.555Z,98643.91
2022-11-20T01:42:15.348Z,98644.03
2022-11-20T01:44:50.942Z,98632.84
2022-11-20T01:47:22.150Z,98639.56
2022-11-20T01:49:53.215Z,98630.19
2022-11-20T01:52:23.742Z,98622.41
2022-11-20T01:54:55.889Z,98620.66
2022-11-20T01:57:24.182Z,98635.28
2022-11-20T01:59:56.356Z,98633.53
2022-11-20T02:02:24.122Z,98629.31
2022-11-20T02:04:53.938Z,98629.31
2022-11-20T02:07:26.919Z,98632.63
2022-11-20T02:09:58.713Z,98627.47
2022-11-20T02:12:48.328Z,98616.28
2022-11-20T02:15:17.590Z,98615.53
2022-11-20T02:17:46.357Z,98622.44
2022-11-20T02:20:14.932Z,98616.94
2022-11-20T02:22:54.850Z,98615.44
2022-11-20T02:25:26.571Z,98623.13
2022-11-20T02:27:56.607Z,98621.47
2022-11-20T02:30:25.161Z,98611.19
2022-11-20T02:32:56.928Z,98613.56
2022-11-20T02:35:46.420Z,98605.81
2022-11-20T02:38:15.696Z,98606.72
2022-11-20T02:40:45.165Z,98610.09
2022-11-20T02:43:13.441Z,98617.06
2022-11-20T02:45:43.958Z,98612.69
2022-11-20T02:48:12.050Z,98610.97
2022-11-20T02:50:45.242Z,98616.91
2022-11-20T02:53:13.601Z,98622.16
2022-11-20T02:55:46.322Z,98611.72
2022-11-20T02:58:14.884Z,98605.75
2022-11-20T03:00:43.469Z,98603.97
2022-11-20T03:03:11.711Z,98609.25
2022-11-20T03:05:40.253Z,98602.25
2022-11-20T03:08:08.628Z,98603.84
2022-11-20T03:10:40.410Z,98596.00
2022-11-20T03:13:14.070Z,98594.28
2022-11-20T03:15:43.660Z,98601.22
2022-11-20T03:18:11.792Z,98602.91
2022-11-20T03:20:40.226Z,98592.56
2022-11-20T03:23:09.456Z,98597.84
2022-11-20T03:25:37.697Z,98608.09
2022-11-20T03:28:05.559Z,98602.03
2022-11-20T03:30:34.877Z,98606.41
2022-11-20T03:33:02.666Z,98600.25
2022-11-20T03:35:30.576Z,98597.72
2022-11-20T03:38:04.774Z,98593.25
2022-11-20T03:40:34.562Z,98598.31
2022-11-20T03:43:02.204Z,98600.31
2022-11-20T03:45:30.011Z,98598.59
2022-11-20T03:47:59.165Z,98592.34
2022-11-20T03:50:27.043Z,98592.25
2022-11-20T03:52:55.702Z,98588.03
2022-11-20T03:55:24.880Z,98579.34
2022-11-20T03:57:53.133Z,98583.72
2022-11-20T04:00:21.652Z,98574.16
2022-11-20T04:02:49.849Z,98579.31
2022-11-20T04:05:19.654Z,98581.84
2022-11-20T04:07:48.342Z,98580.13
2022-11-20T04:10:16.708Z,98581.03
2022-11-20T04:12:45.090Z,98575.75
2022-11-20T04:15:13.739Z,98577.56
2022-11-20T04:17:42.676Z,98576.72
2022-11-20T04:20:14.687Z,98579.31
2022-11-20T04:22:44.605Z,98577.66
2022-11-20T04:25:13.006Z,98585.56
2022-11-20T04:27:41.274Z,98580.25
2022-11-20T04:30:10.755Z,98588.06
2022-11-20T04:32:39.863Z,98574.25
2022-11-20T04:35:08.750Z,98576.78
2022-11-20T04:37:37.023Z,98575.19
2022-11-20T04:40:08.377Z,98578.44
2022-11-20T04:42:36.844Z,98576.06
2022-11-20T04:45:05.650Z,98579.31
2022-11-20T04:47:34.073Z,98575.75
2022-11-20T04:50:02.869Z,98571.50
2022-11-20T04:52:32.307Z,98567.25
2022-11-20T04:55:00.563Z,98573.38
2022-11-20T04:57:30.164Z,98581.16
2022-11-20T04:59:57.789Z,98576.69
2022-11-20T05:02:25.596Z,98572.31
2022-11-20T05:04:53.242Z,98564.41
2022-11-20T05:07:21.001Z,98564.41
2022-11-20T05:09:48.600Z,98568.72
2022-11-20T05:12:16.210Z,98570.56
2022-11-20T05:14:45.124Z,98566.16
2022-11-20T05:17:13.381Z,98577.56
2022-11-20T05:19:40.918Z,98588.56
2022-11-20T05:22:08.505Z,98564.31
2022-11-20T05:24:36.147Z,98571.16
2022-11-20T05:27:03.993Z,98535.53
2022-11-20T05:29:31.564Z,98548.63
2022-11-20T05:32:00.489Z,98567.91
2022-11-20T05:34:28.069Z,98556.69
2022-11-20T05:36:55.601Z,98565.19
2022-11-20T05:39:23.513Z,98557.56
2022-11-20T05:42:11.485Z,98560.91
2022-11-20T05:44:39.107Z,98567.84
2022-11-20T05:47:08.140Z,98562.50
2022-11-20T05:49:35.741Z,98562.63
2022-11-20T05:52:03.320Z,98552.31
2022-11-20T05:54:30.923Z,98548.88
2022-11-20T05:56:58.466Z,98545.28
2022-11-20T05:59:26.025Z,98555.09
2022-11-20T06:01:53.657Z,98547.31
2022-11-20T06:04:22.549Z,98548.69
2022-11-20T06:06:50.165Z,98545.66
2022-11-20T06:09:17.758Z,98551.38
2022-11-20T06:11:45.319Z,98547.50
2022-11-20T06:14:12.936Z,98558.00
2022-11-20T06:16:40.529Z,98549.22
2022-11-20T06:19:08.093Z,98550.81
2022-11-20T06:21:37.009Z,98551.53
2022-11-20T06:24:05.041Z,98550.78
2022-11-20T06:26:32.729Z,98546.50
2022-11-20T06:29:00.413Z,98543.81
2022-11-20T06:31:28.188Z,98556.78
2022-11-20T06:33:56.134Z,98545.56
2022-11-20T06:36:25.174Z,98548.97
2022-11-20T06:38:54.232Z,98535.06
2022-11-20T06:41:23.320Z,98541.19
2022-11-20T06:43:51.726Z,98546.31
2022-11-20T06:46:20.691Z,98543.75
2022-11-20T06:48:49.426Z,98555.56
2022-11-20T06:51:17.695Z,98559.09
2022-11-20T06:53:45.849Z,98562.44
2022-11-20T06:56:14.997Z,98569.44
2022-11-20T06:58:42.630Z,98547.84
2022-11-20T07:01:18.180Z,98563.38
2022-11-20T07:03:50.035Z,98565.94
2022-11-20T07:06:20.631Z,98564.13
2022-11-20T07:08:48.910Z,98569.19
2022-11-20T07:11:18.055Z,98567.41
2022-11-20T07:13:45.863Z,98576.81
2022-11-20T07:16:13.497Z,98583.91
2022-11-20T07:18:44.733Z,98586.31
2022-11-20T07:21:15.427Z,98582.19
2022-11-20T07:23:43.017Z,98581.28
2022-11-20T07:26:12.736Z,98580.31
2022-11-20T07:28:41.870Z,98583.31
2022-11-20T07:31:12.403Z,98577.13
2022-11-20T07:33:43.658Z,98585.03
2022-11-20T07:36:11.486Z,98582.16
2022-11-20T07:38:39.345Z,98588.38
2022-11-20T07:41:06.940Z,98590.06
2022-11-20T07:43:39.913Z,98585.66
2022-11-20T07:46:10.622Z,98590.00
2022-11-20T07:48:38.273Z,98587.38
2022-11-20T07:51:06.027Z,98580.47
2022-11-20T07:53:33.811Z,98596.03
2022-11-20T07:56:02.009Z,98601.97
2022-11-20T07:58:30.961Z,98604.41
2022-11-20T08:00:59.107Z,98603.38
2022-11-20T08:03:28.170Z,98598.19
2022-11-20T08:05:55.906Z,98604.06
2022-11-20T08:08:23.806Z,98599.63
2022-11-20T08:10:51.532Z,98609.16
2022-11-20T08:13:36.593Z,98598.63
2022-11-20T08:16:04.563Z,98596.84
2022-11-20T08:18:33.637Z,98599.59
2022-11-20T08:21:04.440Z,98603.91
2022-11-20T08:23:32.061Z,98609.06
2022-11-20T08:25:59.671Z,98609.72
2022-11-20T08:28:27.397Z,98612.31
2022-11-20T08:31:00.197Z,98619.97
2022-11-20T08:33:27.927Z,98614.97
2022-11-20T08:36:00.929Z,98619.19
2022-11-20T08:38:28.609Z,98616.59
2022-11-20T08:41:16.660Z,98613.66
2022-11-20T08:43:44.429Z,98616.13
2022-11-20T08:46:12.009Z,98613.47
2022-11-20T08:48:40.418Z,98623.03
2022-11-20T08:51:10.041Z,98621.16
2022-11-20T08:53:37.793Z,98622.91
2022-11-20T08:56:06.016Z,98623.47
2022-11-20T08:58:54.905Z,98617.59
2022-11-20T09:01:22.304Z,98623.38
2022-11-20T09:03:50.036Z,98628.72
2022-11-20T09:06:19.012Z,98636.31
2022-11-20T09:08:46.983Z,98635.44
2022-11-20T09:11:14.707Z,98634.47
2022-11-20T09:13:42.249Z,98635.41
2022-11-20T09:16:11.512Z,98625.84
2022-11-20T09:18:39.743Z,98630.00
2022-11-20T09:21:08.816Z,98638.91
2022-11-20T09:23:38.829Z,98636.13
2022-11-20T09:26:07.319Z,98625.66
2022-11-20T09:28:35.170Z,98631.03
2022-11-20T09:31:02.991Z,98623.31
2022-11-20T09:33:30.570Z,98634.41
2022-11-20T09:35:58.597Z,98625.56
2022-11-20T09:38:26.233Z,98626.47
2022-11-20T09:40:59.307Z,98622.81
2022-11-20T09:43:36.379Z,98627.97
2022-11-20T09:46:09.986Z,98624.53
2022-11-20T09:48:45.357Z,98627.13
2022-11-20T09:51:23.051Z,98622.59
2022-11-20T09:54:02.542Z,98632.09
2022-11-20T09:56:31.491Z,98626.81
2022-11-20T09:59:02.002Z,98631.25
2022-11-20T10:01:33.598Z,98631.34
2022-11-20T10:04:03.827Z,98629.50
2022-11-20T10:06:32.754Z,98622.56
2022-11-20T10:09:08.953Z,98632.88
2022-11-20T10:11:47.841Z,98624.06
2022-11-20T10:14:23.728Z,98631.13
2022-11-20T10:16:58.232Z,98618.84
2022-11-20T10:19:37.662Z,98617.16
2022-11-20T10:22:13.944Z,98610.38
2022-11-20T10:24:46.083Z,98606.88
2022-11-20T10:27:37.058Z,98597.13
2022-11-20T10:30:09.913Z,98589.19
2022-11-20T10:32:39.828Z,98596.78
2022-11-20T10:35:12.026Z,98582.84
2022-11-20T10:37:43.228Z,98590.53
2022-11-20T10:40:21.870Z,98580.84
2022-11-20T10:42:54.789Z,98582.44
2022-11-20T10:45:33.646Z,98575.94
2022-11-20T10:48:12.570Z,98581.91
2022-11-20T10:50:43.404Z,98586.19
2022-11-20T10:53:20.338Z,98589.13
2022-11-20T10:55:51.631Z,98582.81
2022-11-20T10:58:27.873Z,98584.34
2022-11-20T11:01:05.454Z,98577.16
2022-11-20T11:03:33.523Z,98582.56
2022-11-20T11:06:04.550Z,98570.25
2022-11-20T11:08:37.570Z,98565.88
2022-11-20T11:11:18.032Z,98564.84
2022-11-20T11:13:47.037Z,98554.34
2022-11-20T11:16:22.495Z,98549.81
2022-11-20T11:18:50.138Z,98547.53
2022-11-20T11:21:23.634Z,98551.16
2022-11-20T11:24:13.438Z,98547.38
2022-11-20T11:26:54.193Z,98554.41
2022-11-20T11:29:23.206Z,98556.25
2022-11-20T11:31:51.016Z,98546.13
2022-11-20T11:34:19.487Z,98543.75
2022-11-20T11:36:54.852Z,98550.81
2022-11-20T11:39:23.058Z,98547.28
2022-11-20T11:41:50.872Z,98543.56
2022-11-20T11:44:37.631Z,98534.84
2022-11-20T11:47:12.246Z,98533.75
2022-11-20T11:49:39.865Z,98535.50
2022-11-20T11:52:14.941Z,98532.34
2022-11-20T11:54:48.018Z,98521.00
2022-11-20T11:57:21.893Z,98528.84
2022-11-20T11:59:57.003Z,98520.06
2022-11-20T12:02:33.640Z,98518.75
2022-11-20T12:05:04.382Z,98519.38
2022-11-20T12:07:48.574Z,98516.59
2022-11-20T12:10:22.948Z,98514.50
2022-11-20T12:12:54.715Z,98509.03
2022-11-20T12:15:28.964Z,98504.69
2022-11-20T12:17:58.100Z,98504.44
2022-11-20T12:20:28.385Z,98502.34
2022-11-20T12:23:01.715Z,98495.03
2022-11-20T12:25:31.181Z,98500.50
2022-11-20T12:28:26.382Z,98500.09
2022-11-20T12:31:06.769Z,98499.78
2022-11-20T12:34:04.718Z,98500.66
2022-11-20T12:36:39.551Z,98494.66
2022-11-20T12:39:18.230Z,98480.91
2022-11-20T12:42:10.984Z,98471.38
2022-11-20T12:45:12.759Z,98483.16
2022-11-20T12:47:53.949Z,98483.78
2022-11-20T12:50:35.197Z,98485.94
2022-11-20T12:53:26.028Z,98482.06
2022-11-20T12:55:58.961Z,98482.06
2022-11-20T12:58:32.036Z,98474.44
2022-11-20T13:01:02.874Z,98476.13
2022-11-20T13:03:39.065Z,98478.28
2022-11-20T13:06:16.228Z,98465.81
2022-11-20T13:08:46.297Z,98452.91
2022-11-20T13:11:18.065Z,98465.38
2022-11-20T13:13:58.093Z,98460.50
2022-11-20T13:16:29.572Z,98456.72
2022-11-20T13:18:57.238Z,98447.56
2022-11-20T13:21:39.326Z,98446.44
2022-11-20T13:24:07.393Z,98451.31
2022-11-20T13:26:35.011Z,98439.81
2022-11-20T13:29:09.950Z,98437.81
2022-11-20T13:31:39.468Z,98443.41
2022-11-20T13:34:08.651Z,98438.25
2022-11-20T13:36:37.702Z,98431.19
2022-11-20T13:39:05.342Z,98422.41
2022-11-20T13:41:36.125Z,98426.38
2022-11-20T13:44:12.232Z,98412.94
2022-11-20T13:46:43.764Z,98416.47
2022-11-20T13:49:12.884Z,98418.59
2022-11-20T13:51:46.169Z,98412.25
2022-11-20T13:54:38.411Z,98412.13
2022-11-20T13:57:14.227Z,98401.34
2022-11-20T13:59:48.617Z,98400.56
2022-11-20T14:02:17.678Z,98394.59
2022-11-20T14:04:47.431Z,98405.25
2022-11-20T14:07:17.528Z,98406.09
2022-11-20T14:09:53.249Z,98403.75
2022-11-20T14:12:22.607Z,98401.00
2022-11-20T14:14:52.233Z,98396.84
2022-11-20T14:17:22.173Z,98401.91
2022-11-20T14:19:51.116Z,98399.47
2022-11-20T14:22:22.648Z,98391.69
2022-11-20T14:24:51.440Z,98383.88
2022-11-20T14:27:21.088Z,98386.44
2022-11-20T14:29:50.286Z,98390.16
2022-11-20T14:32:19.613Z,98392.91
2022-11-20T14:34:49.905Z,98373.53
2022-11-20T14:37:22.748Z,98377.06
2022-11-20T14:39:52.762Z,98370.25
2022-11-20T14:42:21.812Z,98368.59
2022-11-20T14:44:50.500Z,98366.25
2022-11-20T14:47:20.969Z,98369.84
2022-11-20T14:49:49.243Z,98366.59
2022-11-20T14:52:18.213Z,98364.97
2022-11-20T14:54:48.177Z,98365.75
2022-11-20T14:57:27.798Z,98365.81
2022-11-20T15:00:07.910Z,98363.25
2022-11-20T15:02:35.715Z,98356.97
2022-11-20T15:05:04.472Z,98344.88
2022-11-20T15:07:35.249Z,98345.78
2022-11-20T15:10:06.108Z,98346.69
2022-11-20T15:12:34.446Z,98338.59
2022-11-20T15:15:02.873Z,98335.56
2022-11-20T15:17:30.766Z,98340.13
2022-11-20T15:19:58.548Z,98339.16
2022-11-20T15:22:26.145Z,98342.75
2022-11-20T15:24:53.735Z,98346.38
2022-11-20T15:27:22.653Z,98338.69
2022-11-20T15:29:50.262Z,98336.19
2022-11-20T15:32:17.905Z,98342.28
2022-11-20T15:34:45.506Z,98334.53
2022-11-20T15:37:13.098Z,98315.81
2022-11-20T15:39:40.685Z,98330.47
2022-11-20T15:42:08.314Z,98330.66
2022-11-20T15:44:37.321Z,98327.19
2022-11-20T15:47:05.090Z,98330.03
2022-11-20T15:49:32.718Z,98322.91
2022-11-20T15:52:00.295Z,98316.94
2022-11-20T15:54:27.920Z,98316.09
2022-11-20T15:56:55.540Z,98323.09
2022-11-20T15:59:23.134Z,98314.34
2022-11-20T16:01:52.218Z,98315.97
2022-11-20T16:04:20.500Z,98310.69
2022-11-20T16:06:48.476Z,98314.03
2022-11-20T16:09:16.126Z,98306.00
2022-11-20T16:11:43.726Z,98304.44
2022-11-20T16:14:31.995Z,98305.47
2022-11-20T16:17:00.937Z,98299.25
2022-11-20T16:19:28.524Z,98287.19
2022-11-20T16:22:02.628Z,98290.69
2022-11-20T16:24:30.858Z,98280.28
2022-11-20T16:26:58.849Z,98275.09
2022-11-20T16:29:26.431Z,98269.94
2022-11-20T16:31:53.999Z,98277.66
2022-11-20T16:34:22.951Z,98276.00
2022-11-20T16:36:50.511Z,98272.53
2022-11-20T16:39:23.357Z,98262.09
2022-11-20T16:41:51.579Z,98268.84
2022-11-20T16:44:19.178Z,98262.63
2022-11-20T16:46:46.779Z,98261.16
2022-11-20T16:49:15.585Z,98257.47
2022-11-20T16:51:44.643Z,98256.41
2022-11-20T16:54:16.420Z,98257.28
2022-11-20T16:56:44.158Z,98245.97
2022-11-20T16:59:11.786Z,98246.81
2022-11-20T17:01:41.721Z,98249.66
2022-11-20T17:04:09.373Z,98243.59
2022-11-20T17:06:38.946Z,98240.72
2022-11-20T17:09:09.535Z,98239.03
2022-11-20T17:11:38.196Z,98236.03
2022-11-20T17:14:07.287Z,98227.41
2022-11-20T17:16:36.098Z,98218.94
2022-11-20T17:19:05.230Z,98215.72
2022-11-20T17:21:33.343Z,98216.22
2022-11-20T17:24:01.846Z,98208.53
2022-11-20T17:26:30.870Z,98204.47
2022-11-20T17:29:00.082Z,98196.09
2022-11-20T17:31:28.359Z,98200.09
2022-11-20T17:33:55.971Z,98202.59
2022-11-20T17:36:23.834Z,98197.66
2022-11-20T17:38:51.965Z,98188.97
2022-11-20T17:41:22.141Z,98200.34
2022-11-20T17:43:51.161Z,98196.38
2022-11-20T17:46:20.614Z,98195.78
2022-11-20T17:48:49.673Z,98200.19
2022-11-20T17:51:19.338Z,98201.28
2022-11-20T17:53:48.133Z,98197.69
2022-11-20T17:56:33.645Z,98193.44
2022-11-20T17:59:05.766Z,98189.31
2022-11-20T18:01:33.425Z,98189.19
2022-11-20T18:04:01.057Z,98191.69
2022-11-20T18:06:30.022Z,98178.47
2022-11-20T18:08:58.950Z,98183.09
2022-11-20T18:11:27.826Z,98167.09
2022-11-20T18:14:14.319Z,98169.84
2022-11-20T18:16:45.904Z,98165.00
2022-11-20T18:19:15.586Z,98164.38
2022-11-20T18:21:43.325Z,98164.19
2022-11-20T18:24:11.398Z,98165.00
2022-11-20T18:26:44.071Z,98157.94
2022-11-20T18:29:12.376Z,98162.25
2022-11-20T18:31:40.260Z,98155.94
2022-11-20T18:34:12.897Z,98154.84
2022-11-20T18:36:40.913Z,98153.94
2022-11-20T18:39:08.591Z,98149.47
2022-11-20T18:41:53.877Z,98160.69
2022-11-20T18:44:40.863Z,98139.47
2022-11-20T18:47:14.263Z,98144.75
2022-11-20T18:49:46.123Z,98143.50
2022-11-20T18:52:14.237Z,98133.88
2022-11-20T18:54:42.001Z,98125.84
2022-11-20T18:57:14.369Z,98115.47
2022-11-20T18:59:42.825Z,98115.34
2022-11-20T19:02:12.138Z,98120.56
2022-11-20T19:04:39.941Z,98122.00
2022-11-20T19:07:11.887Z,98125.25
2022-11-20T19:09:39.912Z,98122.69
2022-11-20T19:12:08.342Z,98133.88
2022-11-20T19:14:36.026Z,98130.53
2022-11-20T19:17:04.205Z,98120.03
2022-11-20T19:19:31.815Z,98114.72
2022-11-20T19:21:59.444Z,98108.66
2022-11-20T19:24:29.173Z,98106.75
2022-11-20T19:26:57.235Z,98098.06
2022-11-20T19:29:26.738Z,98089.63
2022-11-20T19:31:54.581Z,98094.97
2022-11-20T19:34:22.229Z,98093.47
2022-11-20T19:36:49.791Z,98085.81
2022-11-20T19:39:17.860Z,98075.63
2022-11-20T19:41:46.907Z,98082.16
2022-11-20T19:44:15.851Z,98086.78
2022-11-20T19:46:43.932Z,98082.47
2022-11-20T19:49:13.026Z,98088.63
2022-11-20T19:51:46.397Z,98096.22
2022-11-20T19:54:14.514Z,98095.91
2022-11-20T19:56:42.204Z,98084.72
2022-11-20T19:59:11.103Z,98088.69
2022-11-20T20:01:38.730Z,98080.84
2022-11-20T20:04:07.000Z,98070.50
2022-11-20T20:06:36.162Z,98074.81
2022-11-20T20:09:06.008Z,98074.28
2022-11-20T20:11:34.593Z,98067.84
2022-11-20T20:14:03.589Z,98069.50
2022-11-20T20:16:32.662Z,98073.31
2022-11-20T20:19:01.848Z,98062.63
2022-11-20T20:21:30.532Z,98065.41
2022-11-20T20:24:00.724Z,98071.69
2022-11-20T20:26:29.798Z,98064.44
2022-11-20T20:28:57.714Z,98065.16
2022-11-20T20:31:27.546Z,98076.28
2022-11-20T20:33:57.030Z,98070.22
2022-11-20T20:36:25.360Z,98069.09
2022-11-20T20:38:53.220Z,98070.69
2022-11-20T20:41:21.691Z,98076.94
2022-11-20T20:44:06.664Z,98075.84
2022-11-20T20:46:34.473Z,98083.81
2022-11-20T20:49:03.410Z,98077.63
2022-11-20T20:51:31.132Z,98077.63
2022-11-20T20:53:59.332Z,98080.28
2022-11-20T20:56:27.017Z,98060.91
2022-11-20T20:58:54.701Z,98066.94
2022-11-20T21:01:22.715Z,98075.00
2022-11-20T21:03:50.355Z,98070.50
2022-11-20T21:06:19.280Z,98065.53
2022-11-20T21:08:47.017Z,98069.78
2022-11-20T21:11:15.872Z,98078.41
2022-11-20T21:13:44.604Z,98063.53
2022-11-20T21:16:13.155Z,98062.81
2022-11-20T21:18:40.839Z,98065.47
2022-11-20T21:21:27.714Z,98073.75
2022-11-20T21:23:56.902Z,98073.00
2022-11-20T21:26:24.464Z,98069.47
2022-11-20T21:28:52.119Z,98064.19
2022-11-20T21:31:22.634Z,98063.78
2022-11-20T21:33:52.234Z,98067.84
2022-11-20T21:36:21.384Z,98060.97
2022-11-20T21:38:49.612Z,98063.66
2022-11-20T21:41:18.781Z,98062.63
2022-11-20T21:44:09.192Z,98075.38
2022-11-20T21:46:39.697Z,98072.03
2022-11-20T21:49:07.459Z,98075.38
2022-11-20T21:51:35.179Z,98075.31
2022-11-20T21:54:02.938Z,98069.06
2022-11-20T21:56:31.932Z,98072.69
2022-11-20T21:58:59.640Z,98065.72
2022-11-20T22:01:29.208Z,98063.94
2022-11-20T22:03:58.447Z,98061.94
2022-11-20T22:06:27.042Z,98077.31
2022-11-20T22:08:54.614Z,98074.56
2022-11-20T22:11:23.090Z,98079.56
2022-11-20T22:14:09.873Z,98078.44
2022-11-20T22:16:38.543Z,98081.78
2022-11-20T22:19:07.052Z,98078.78
2022-11-20T22:21:35.070Z,98064.72
2022-11-20T22:24:02.776Z,98076.03
2022-11-20T22:26:36.096Z,98072.00
2022-11-20T22:29:07.778Z,98070.69
2022-11-20T22:31:35.391Z,98062.19
2022-11-20T22:34:03.764Z,98068.31
2022-11-20T22:36:32.479Z,98072.56
2022-11-20T22:39:03.396Z,98067.53
2022-11-20T22:41:31.666Z,98077.75
2022-11-20T22:44:00.714Z,98063.94
2022-11-20T22:46:31.925Z,98070.69
2022-11-20T22:49:01.309Z,98043.81
2022-11-20T22:51:30.360Z,98076.75
2022-11-20T22:53:58.119Z,98079.81
2022-11-20T22:56:26.661Z,98082.63
2022-11-20T22:58:55.362Z,98095.66
2022-11-20T23:01:24.251Z,98103.28
2022-11-20T23:03:55.810Z,98097.06
2022-11-20T23:06:24.311Z,98087.44
2022-11-20T23:08:52.542Z,98095.03
2022-11-20T23:11:21.577Z,98093.22
2022-11-20T23:13:52.891Z,98096.03
2022-11-20T23:16:20.937Z,98101.38
2022-11-20T23:18:48.566Z,98092.56
2022-11-20T23:21:19.561Z,98092.69
2022-11-20T23:23:49.419Z,98097.00
2022-11-20T23:26:19.129Z,98097.00
2022-11-20T23:28:47.346Z,98090.25
2022-11-20T23:31:16.269Z,98088.69
2022-11-20T23:33:45.064Z,98091.22
2022-11-20T23:36:13.083Z,98088.69
2022-11-20T23:38:42.282Z,98090.44
2022-11-20T23:41:10.028Z,98092.94
2022-11-20T23:43:37.651Z,98094.38
2022-11-20T23:46:05.771Z,98097.13
2022-11-20T23:48:35.743Z,98094.94
2022-11-20T23:51:03.961Z,98077.06
2022-11-20T23:53:32.128Z,98080.84
2022-11-20T23:56:03.306Z,98070.28
2022-11-20T23:58:32.966Z,98078.13
